sensor_id;sensor_type;location;lat;lon;timestamp;temperature;humidity
34768;DHT22;21755;43.608;1.236;2023-03-12T00:00:40;13.20;99.90
34768;DHT22;21755;43.608;1.236;2023-03-12T00:03:06;13.30;99.90
34768;DHT22;21755;43.608;1.236;2023-03-12T00:05:32;13.30;99.90
34768;DHT22;21755;43.608;1.236;2023-03-12T00:07:58;13.30;99.90
34768;DHT22;21755;43.608;1.236;2023-03-12T00:10:28;13.30;99.90
34768;DHT22;21755;43.608;1.236;2023-03-12T00:12:54;13.30;99.90
34768;DHT22;21755;43.608;1.236;2023-03-12T00:15:20;13.30;99.90
34768;DHT22;21755;43.608;1.236;2023-03-12T00:17:46;13.20;99.90
34768;DHT22;21755;43.608;1.236;2023-03-12T00:20:12;13.30;99.90
34768;DHT22;21755;43.608;1.236;2023-03-12T00:22:39;13.20;99.90
34768;DHT22;21755;43.608;1.236;2023-03-12T00:25:06;13.20;99.90
34768;DHT22;21755;43.608;1.236;2023-03-12T00:27:32;13.20;99.90
34768;DHT22;21755;43.608;1.236;2023-03-12T00:29:58;13.20;99.90
34768;DHT22;21755;43.608;1.236;2023-03-12T00:32:24;13.20;99.90
34768;DHT22;21755;43.608;1.236;2023-03-12T00:34:51;13.20;99.90
34768;DHT22;21755;43.608;1.236;2023-03-12T00:37:17;13.20;99.90
34768;DHT22;21755;43.608;1.236;2023-03-12T00:39:43;13.20;99.90
34768;DHT22;21755;43.608;1.236;2023-03-12T00:42:09;13.20;99.90
34768;DHT22;21755;43.608;1.236;2023-03-12T00:44:35;13.20;99.90
34768;DHT22;21755;43.608;1.236;2023-03-12T00:47:01;13.20;99.90
34768;DHT22;21755;43.608;1.236;2023-03-12T00:49:27;13.20;99.90
34768;DHT22;21755;43.608;1.236;2023-03-12T00:51:53;13.20;99.90
34768;DHT22;21755;43.608;1.236;2023-03-12T00:54:19;13.10;99.90
34768;DHT22;21755;43.608;1.236;2023-03-12T00:56:45;13.20;99.90
34768;DHT22;21755;43.608;1.236;2023-03-12T00:59:14;13.20;99.90
34768;DHT22;21755;43.608;1.236;2023-03-12T01:01:40;13.10;99.90
34768;DHT22;21755;43.608;1.236;2023-03-12T01:04:06;13.10;99.90
34768;DHT22;21755;43.608;1.236;2023-03-12T01:06:32;13.10;99.90
34768;DHT22;21755;43.608;1.236;2023-03-12T01:09:04;13.10;99.90
34768;DHT22;21755;43.608;1.236;2023-03-12T01:11:31;13.10;99.90
34768;DHT22;21755;43.608;1.236;2023-03-12T01:13:58;13.10;99.90
34768;DHT22;21755;43.608;1.236;2023-03-12T01:16:28;13.10;99.90
34768;DHT22;21755;43.608;1.236;2023-03-12T01:18:56;13.10;99.90
34768;DHT22;21755;43.608;1.236;2023-03-12T01:21:23;13.10;99.90
34768;DHT22;21755;43.608;1.236;2023-03-12T01:23:50;13.10;99.90
34768;DHT22;21755;43.608;1.236;2023-03-12T01:26:16;13.00;99.90
34768;DHT22;21755;43.608;1.236;2023-03-12T01:28:42;13.10;99.90
34768;DHT22;21755;43.608;1.236;2023-03-12T01:31:10;13.10;99.90
34768;DHT22;21755;43.608;1.236;2023-03-12T01:33:36;13.00;99.90
34768;DHT22;21755;43.608;1.236;2023-03-12T01:36:03;13.00;99.90
34768;DHT22;21755;43.608;1.236;2023-03-12T01:38:30;13.00;99.90
34768;DHT22;21755;43.608;1.236;2023-03-12T01:40:55;13.00;99.90
34768;DHT22;21755;43.608;1.236;2023-03-12T01:43:32;13.00;99.90
34768;DHT22;21755;43.608;1.236;2023-03-12T01:51:45;13.00;99.90
34768;DHT22;21755;43.608;1.236;2023-03-12T01:54:43;13.00;99.90
34768;DHT22;21755;43.608;1.236;2023-03-12T01:57:14;13.00;99.90
34768;DHT22;21755;43.608;1.236;2023-03-12T01:59:50;13.00;99.90
34768;DHT22;21755;43.608;1.236;2023-03-12T02:02:17;13.00;99.90
34768;DHT22;21755;43.608;1.236;2023-03-12T02:04:48;13.00;99.90
34768;DHT22;21755;43.608;1.236;2023-03-12T02:07:16;13.00;99.90
34768;DHT22;21755;43.608;1.236;2023-03-12T02:09:46;13.00;99.90
34768;DHT22;21755;43.608;1.236;2023-03-12T02:12:13;12.90;99.90
34768;DHT22;21755;43.608;1.236;2023-03-12T02:14:40;12.90;99.90
34768;DHT22;21755;43.608;1.236;2023-03-12T02:17:07;13.00;99.90
34768;DHT22;21755;43.608;1.236;2023-03-12T02:19:50;13.00;99.90
34768;DHT22;21755;43.608;1.236;2023-03-12T02:22:20;12.90;99.90
34768;DHT22;21755;43.608;1.236;2023-03-12T02:25:17;12.90;99.90
34768;DHT22;21755;43.608;1.236;2023-03-12T02:27:45;12.90;99.90
34768;DHT22;21755;43.608;1.236;2023-03-12T02:30:11;13.00;99.90
34768;DHT22;21755;43.608;1.236;2023-03-12T02:32:41;12.90;99.90
34768;DHT22;21755;43.608;1.236;2023-03-12T02:35:10;12.90;99.90
34768;DHT22;21755;43.608;1.236;2023-03-12T02:37:49;13.00;99.90
34768;DHT22;21755;43.608;1.236;2023-03-12T02:40:30;13.00;99.90
34768;DHT22;21755;43.608;1.236;2023-03-12T02:42:58;13.00;99.90
34768;DHT22;21755;43.608;1.236;2023-03-12T02:45:25;12.90;99.90
34768;DHT22;21755;43.608;1.236;2023-03-12T02:47:51;12.90;99.90
34768;DHT22;21755;43.608;1.236;2023-03-12T02:50:17;12.90;99.90
34768;DHT22;21755;43.608;1.236;2023-03-12T02:52:43;12.90;99.90
34768;DHT22;21755;43.608;1.236;2023-03-12T02:55:09;12.90;99.90
34768;DHT22;21755;43.608;1.236;2023-03-12T02:57:35;12.80;99.90
34768;DHT22;21755;43.608;1.236;2023-03-12T03:00:07;12.80;99.90
34768;DHT22;21755;43.608;1.236;2023-03-12T03:02:42;12.80;99.90
34768;DHT22;21755;43.608;1.236;2023-03-12T03:05:10;12.80;99.90
34768;DHT22;21755;43.608;1.236;2023-03-12T03:07:36;12.80;99.90
34768;DHT22;21755;43.608;1.236;2023-03-12T03:10:03;12.80;99.90
34768;DHT22;21755;43.608;1.236;2023-03-12T03:12:30;12.90;99.90
34768;DHT22;21755;43.608;1.236;2023-03-12T03:14:56;12.90;99.90
34768;DHT22;21755;43.608;1.236;2023-03-12T03:17:22;12.80;99.90
34768;DHT22;21755;43.608;1.236;2023-03-12T03:19:50;12.80;99.90
34768;DHT22;21755;43.608;1.236;2023-03-12T03:22:16;12.80;99.90
34768;DHT22;21755;43.608;1.236;2023-03-12T03:24:42;12.90;99.90
34768;DHT22;21755;43.608;1.236;2023-03-12T03:27:08;12.80;99.90
34768;DHT22;21755;43.608;1.236;2023-03-12T03:29:34;12.80;99.90
34768;DHT22;21755;43.608;1.236;2023-03-12T03:32:00;12.80;99.90
34768;DHT22;21755;43.608;1.236;2023-03-12T03:34:26;12.80;99.90
34768;DHT22;21755;43.608;1.236;2023-03-12T03:36:52;12.80;99.90
34768;DHT22;21755;43.608;1.236;2023-03-12T03:39:18;12.90;99.90
34768;DHT22;21755;43.608;1.236;2023-03-12T03:41:44;12.80;99.90
34768;DHT22;21755;43.608;1.236;2023-03-12T03:44:12;12.80;99.90
34768;DHT22;21755;43.608;1.236;2023-03-12T03:46:38;12.80;99.90
34768;DHT22;21755;43.608;1.236;2023-03-12T03:49:04;12.80;99.90
34768;DHT22;21755;43.608;1.236;2023-03-12T03:51:30;12.80;99.90
34768;DHT22;21755;43.608;1.236;2023-03-12T03:53:58;12.80;99.90
34768;DHT22;21755;43.608;1.236;2023-03-12T03:56:25;12.80;99.90
34768;DHT22;21755;43.608;1.236;2023-03-12T03:58:51;12.80;99.90
34768;DHT22;21755;43.608;1.236;2023-03-12T04:01:17;12.80;99.90
34768;DHT22;21755;43.608;1.236;2023-03-12T04:03:43;12.80;99.90
34768;DHT22;21755;43.608;1.236;2023-03-12T04:06:09;12.70;99.90
34768;DHT22;21755;43.608;1.236;2023-03-12T04:08:36;12.80;99.90
34768;DHT22;21755;43.608;1.236;2023-03-12T04:11:10;12.70;99.90
34768;DHT22;21755;43.608;1.236;2023-03-12T04:13:37;12.80;99.90
34768;DHT22;21755;43.608;1.236;2023-03-12T04:16:03;12.80;99.90
34768;DHT22;21755;43.608;1.236;2023-03-12T04:18:29;12.70;99.90
34768;DHT22;21755;43.608;1.236;2023-03-12T04:20:55;12.70;99.90
34768;DHT22;21755;43.608;1.236;2023-03-12T04:23:21;12.70;99.90
34768;DHT22;21755;43.608;1.236;2023-03-12T04:25:47;12.70;99.90
34768;DHT22;21755;43.608;1.236;2023-03-12T04:28:13;12.70;99.90
34768;DHT22;21755;43.608;1.236;2023-03-12T04:30:39;12.70;99.90
34768;DHT22;21755;43.608;1.236;2023-03-12T04:33:06;12.70;99.90
34768;DHT22;21755;43.608;1.236;2023-03-12T04:35:32;12.70;99.90
34768;DHT22;21755;43.608;1.236;2023-03-12T04:37:59;12.70;99.90
34768;DHT22;21755;43.608;1.236;2023-03-12T04:40:26;12.70;99.90
34768;DHT22;21755;43.608;1.236;2023-03-12T04:42:52;12.70;99.90
34768;DHT22;21755;43.608;1.236;2023-03-12T04:45:18;12.60;99.90
34768;DHT22;21755;43.608;1.236;2023-03-12T04:47:44;12.40;99.90
34768;DHT22;21755;43.608;1.236;2023-03-12T04:50:11;12.30;99.90
34768;DHT22;21755;43.608;1.236;2023-03-12T04:52:37;12.20;99.90
34768;DHT22;21755;43.608;1.236;2023-03-12T04:55:03;12.10;99.90
34768;DHT22;21755;43.608;1.236;2023-03-12T04:57:30;12.10;99.90
34768;DHT22;21755;43.608;1.236;2023-03-12T04:59:56;12.10;99.90
34768;DHT22;21755;43.608;1.236;2023-03-12T05:02:21;12.10;99.90
34768;DHT22;21755;43.608;1.236;2023-03-12T05:04:47;12.00;99.90
34768;DHT22;21755;43.608;1.236;2023-03-12T05:07:13;12.00;99.90
34768;DHT22;21755;43.608;1.236;2023-03-12T05:09:39;12.10;99.90
34768;DHT22;21755;43.608;1.236;2023-03-12T05:12:05;12.10;99.90
34768;DHT22;21755;43.608;1.236;2023-03-12T05:14:31;12.00;99.90
34768;DHT22;21755;43.608;1.236;2023-03-12T05:16:57;12.00;99.90
34768;DHT22;21755;43.608;1.236;2023-03-12T05:19:23;12.00;99.90
34768;DHT22;21755;43.608;1.236;2023-03-12T05:21:48;12.00;99.90
34768;DHT22;21755;43.608;1.236;2023-03-12T05:24:14;12.00;99.90
34768;DHT22;21755;43.608;1.236;2023-03-12T05:26:41;12.10;99.90
34768;DHT22;21755;43.608;1.236;2023-03-12T05:29:08;12.10;99.90
34768;DHT22;21755;43.608;1.236;2023-03-12T05:31:34;12.10;99.90
34768;DHT22;21755;43.608;1.236;2023-03-12T05:34:02;12.10;99.90
34768;DHT22;21755;43.608;1.236;2023-03-12T05:36:28;12.10;99.90
34768;DHT22;21755;43.608;1.236;2023-03-12T05:38:54;12.10;99.90
34768;DHT22;21755;43.608;1.236;2023-03-12T05:41:25;12.10;99.90
34768;DHT22;21755;43.608;1.236;2023-03-12T05:43:52;12.10;99.90
34768;DHT22;21755;43.608;1.236;2023-03-12T05:46:18;12.10;99.90
34768;DHT22;21755;43.608;1.236;2023-03-12T05:48:44;12.10;99.90
34768;DHT22;21755;43.608;1.236;2023-03-12T05:51:10;12.20;99.90
34768;DHT22;21755;43.608;1.236;2023-03-12T05:53:36;12.20;99.90
34768;DHT22;21755;43.608;1.236;2023-03-12T05:56:04;12.20;99.90
34768;DHT22;21755;43.608;1.236;2023-03-12T05:58:31;12.20;99.90
34768;DHT22;21755;43.608;1.236;2023-03-12T06:00:58;12.20;99.90
34768;DHT22;21755;43.608;1.236;2023-03-12T06:03:24;12.20;99.90
34768;DHT22;21755;43.608;1.236;2023-03-12T06:05:50;12.20;99.90
34768;DHT22;21755;43.608;1.236;2023-03-12T06:08:20;12.20;99.90
34768;DHT22;21755;43.608;1.236;2023-03-12T06:10:46;12.20;99.90
34768;DHT22;21755;43.608;1.236;2023-03-12T06:13:12;12.20;99.90
34768;DHT22;21755;43.608;1.236;2023-03-12T06:15:38;12.20;99.90
34768;DHT22;21755;43.608;1.236;2023-03-12T06:18:04;12.20;99.90
34768;DHT22;21755;43.608;1.236;2023-03-12T06:20:29;12.20;99.90
34768;DHT22;21755;43.608;1.236;2023-03-12T06:22:55;12.20;99.90
34768;DHT22;21755;43.608;1.236;2023-03-12T06:25:21;12.20;99.90
34768;DHT22;21755;43.608;1.236;2023-03-12T06:27:47;12.20;99.90
34768;DHT22;21755;43.608;1.236;2023-03-12T06:30:14;12.20;99.90
34768;DHT22;21755;43.608;1.236;2023-03-12T06:32:39;12.20;99.90
34768;DHT22;21755;43.608;1.236;2023-03-12T06:35:05;12.20;99.90
34768;DHT22;21755;43.608;1.236;2023-03-12T06:37:31;12.20;99.90
34768;DHT22;21755;43.608;1.236;2023-03-12T06:39:57;12.20;99.90
34768;DHT22;21755;43.608;1.236;2023-03-12T06:42:23;12.20;99.90
34768;DHT22;21755;43.608;1.236;2023-03-12T06:44:51;12.20;99.90
34768;DHT22;21755;43.608;1.236;2023-03-12T06:47:17;12.20;99.90
34768;DHT22;21755;43.608;1.236;2023-03-12T06:49:42;12.20;99.90
34768;DHT22;21755;43.608;1.236;2023-03-12T06:52:08;12.20;99.90
34768;DHT22;21755;43.608;1.236;2023-03-12T06:54:34;12.20;99.90
34768;DHT22;21755;43.608;1.236;2023-03-12T06:57:00;12.20;99.90
34768;DHT22;21755;43.608;1.236;2023-03-12T06:59:26;12.20;99.90
34768;DHT22;21755;43.608;1.236;2023-03-12T07:01:53;12.20;99.90
34768;DHT22;21755;43.608;1.236;2023-03-12T07:04:19;12.30;99.90
34768;DHT22;21755;43.608;1.236;2023-03-12T07:06:45;12.20;99.90
34768;DHT22;21755;43.608;1.236;2023-03-12T07:09:16;12.30;99.90
34768;DHT22;21755;43.608;1.236;2023-03-12T07:11:42;12.30;99.90
34768;DHT22;21755;43.608;1.236;2023-03-12T07:14:08;12.30;99.90
34768;DHT22;21755;43.608;1.236;2023-03-12T07:16:34;12.30;99.90
34768;DHT22;21755;43.608;1.236;2023-03-12T07:19:00;12.30;99.90
34768;DHT22;21755;43.608;1.236;2023-03-12T07:21:26;12.30;99.90
34768;DHT22;21755;43.608;1.236;2023-03-12T07:23:52;12.40;99.90
34768;DHT22;21755;43.608;1.236;2023-03-12T07:26:18;12.40;99.90
34768;DHT22;21755;43.608;1.236;2023-03-12T07:28:44;12.40;99.90
34768;DHT22;21755;43.608;1.236;2023-03-12T07:31:10;12.40;99.90
34768;DHT22;21755;43.608;1.236;2023-03-12T07:33:36;12.50;99.90
34768;DHT22;21755;43.608;1.236;2023-03-12T07:36:03;12.50;99.90
34768;DHT22;21755;43.608;1.236;2023-03-12T07:38:29;12.50;99.90
34768;DHT22;21755;43.608;1.236;2023-03-12T07:40:57;12.60;99.90
34768;DHT22;21755;43.608;1.236;2023-03-12T07:43:23;12.60;99.90
34768;DHT22;21755;43.608;1.236;2023-03-12T07:45:50;12.60;99.90
34768;DHT22;21755;43.608;1.236;2023-03-12T07:48:16;12.70;99.90
34768;DHT22;21755;43.608;1.236;2023-03-12T07:50:44;12.70;99.90
34768;DHT22;21755;43.608;1.236;2023-03-12T07:53:10;12.80;99.90
34768;DHT22;21755;43.608;1.236;2023-03-12T07:55:36;12.80;99.90
34768;DHT22;21755;43.608;1.236;2023-03-12T07:58:02;12.90;99.90
34768;DHT22;21755;43.608;1.236;2023-03-12T08:00:29;12.90;99.90
34768;DHT22;21755;43.608;1.236;2023-03-12T08:02:55;12.90;99.90
34768;DHT22;21755;43.608;1.236;2023-03-12T08:05:21;13.00;99.90
34768;DHT22;21755;43.608;1.236;2023-03-12T08:07:50;13.00;99.90
34768;DHT22;21755;43.608;1.236;2023-03-12T08:10:17;13.00;99.90
34768;DHT22;21755;43.608;1.236;2023-03-12T08:12:43;13.00;99.90
34768;DHT22;21755;43.608;1.236;2023-03-12T08:15:10;13.00;99.90
34768;DHT22;21755;43.608;1.236;2023-03-12T08:17:37;13.00;99.90
34768;DHT22;21755;43.608;1.236;2023-03-12T08:20:04;12.90;99.90
34768;DHT22;21755;43.608;1.236;2023-03-12T08:22:35;12.80;99.90
34768;DHT22;21755;43.608;1.236;2023-03-12T08:25:02;12.80;99.90
34768;DHT22;21755;43.608;1.236;2023-03-12T08:27:28;12.80;99.90
34768;DHT22;21755;43.608;1.236;2023-03-12T08:29:54;12.70;99.90
34768;DHT22;21755;43.608;1.236;2023-03-12T08:32:19;12.80;99.90
34768;DHT22;21755;43.608;1.236;2023-03-12T08:34:45;12.80;99.90
34768;DHT22;21755;43.608;1.236;2023-03-12T08:37:11;12.80;99.90
34768;DHT22;21755;43.608;1.236;2023-03-12T08:39:37;12.90;99.90
34768;DHT22;21755;43.608;1.236;2023-03-12T08:42:03;12.90;99.90
34768;DHT22;21755;43.608;1.236;2023-03-12T08:44:30;12.90;99.90
34768;DHT22;21755;43.608;1.236;2023-03-12T08:46:56;12.90;99.90
34768;DHT22;21755;43.608;1.236;2023-03-12T08:49:22;12.90;99.90
34768;DHT22;21755;43.608;1.236;2023-03-12T08:51:48;13.00;99.90
34768;DHT22;21755;43.608;1.236;2023-03-12T08:54:17;13.00;99.90
34768;DHT22;21755;43.608;1.236;2023-03-12T08:56:43;13.10;99.90
34768;DHT22;21755;43.608;1.236;2023-03-12T08:59:12;13.20;99.90
34768;DHT22;21755;43.608;1.236;2023-03-12T09:01:39;13.20;99.90
34768;DHT22;21755;43.608;1.236;2023-03-12T09:04:05;13.20;99.90
34768;DHT22;21755;43.608;1.236;2023-03-12T09:06:32;13.30;99.90
34768;DHT22;21755;43.608;1.236;2023-03-12T09:09:00;13.30;99.90
34768;DHT22;21755;43.608;1.236;2023-03-12T09:11:30;13.30;99.90
34768;DHT22;21755;43.608;1.236;2023-03-12T09:13:57;13.40;99.90
34768;DHT22;21755;43.608;1.236;2023-03-12T09:16:23;13.40;99.90
34768;DHT22;21755;43.608;1.236;2023-03-12T09:18:49;13.50;99.90
34768;DHT22;21755;43.608;1.236;2023-03-12T09:21:15;13.50;99.90
34768;DHT22;21755;43.608;1.236;2023-03-12T09:23:41;13.50;99.90
34768;DHT22;21755;43.608;1.236;2023-03-12T09:26:10;13.50;99.90
34768;DHT22;21755;43.608;1.236;2023-03-12T09:28:37;13.50;99.90
34768;DHT22;21755;43.608;1.236;2023-03-12T09:31:04;13.50;99.90
34768;DHT22;21755;43.608;1.236;2023-03-12T09:33:30;13.40;99.90
34768;DHT22;21755;43.608;1.236;2023-03-12T09:35:58;13.40;99.90
34768;DHT22;21755;43.608;1.236;2023-03-12T09:38:24;13.50;99.90
34768;DHT22;21755;43.608;1.236;2023-03-12T09:40:51;13.50;99.90
34768;DHT22;21755;43.608;1.236;2023-03-12T09:43:39;13.60;99.90
34768;DHT22;21755;43.608;1.236;2023-03-12T09:46:17;13.50;99.90
34768;DHT22;21755;43.608;1.236;2023-03-12T09:48:47;13.60;99.90
34768;DHT22;21755;43.608;1.236;2023-03-12T09:51:23;13.60;99.90
34768;DHT22;21755;43.608;1.236;2023-03-12T09:53:56;13.60;99.90
34768;DHT22;21755;43.608;1.236;2023-03-12T09:56:22;13.70;99.90
34768;DHT22;21755;43.608;1.236;2023-03-12T09:58:49;13.80;99.90
34768;DHT22;21755;43.608;1.236;2023-03-12T10:06:38;14.10;99.90
34768;DHT22;21755;43.608;1.236;2023-03-12T10:09:51;14.20;99.90
34768;DHT22;21755;43.608;1.236;2023-03-12T10:12:23;14.20;99.90
34768;DHT22;21755;43.608;1.236;2023-03-12T10:18:10;14.20;99.90
34768;DHT22;21755;43.608;1.236;2023-03-12T10:21:09;14.10;99.90
34768;DHT22;21755;43.608;1.236;2023-03-12T10:26:24;14.60;99.90
34768;DHT22;21755;43.608;1.236;2023-03-12T10:29:02;14.70;99.90
34768;DHT22;21755;43.608;1.236;2023-03-12T10:34:22;14.40;99.90
34768;DHT22;21755;43.608;1.236;2023-03-12T10:36:50;14.60;99.90
34768;DHT22;21755;43.608;1.236;2023-03-12T10:39:18;14.50;99.90
34768;DHT22;21755;43.608;1.236;2023-03-12T10:41:46;14.40;99.90
34768;DHT22;21755;43.608;1.236;2023-03-12T10:44:22;14.40;99.90
34768;DHT22;21755;43.608;1.236;2023-03-12T10:47:20;14.50;99.90
34768;DHT22;21755;43.608;1.236;2023-03-12T10:49:48;14.60;99.90
34768;DHT22;21755;43.608;1.236;2023-03-12T10:52:18;14.70;99.90
34768;DHT22;21755;43.608;1.236;2023-03-12T10:54:49;14.90;99.90
34768;DHT22;21755;43.608;1.236;2023-03-12T10:57:16;14.70;99.90
34768;DHT22;21755;43.608;1.236;2023-03-12T10:59:45;14.80;99.90
34768;DHT22;21755;43.608;1.236;2023-03-12T11:02:34;15.10;99.90
34768;DHT22;21755;43.608;1.236;2023-03-12T11:05:02;15.30;99.90
34768;DHT22;21755;43.608;1.236;2023-03-12T11:07:43;15.40;99.90
34768;DHT22;21755;43.608;1.236;2023-03-12T11:12:36;15.30;99.90
34768;DHT22;21755;43.608;1.236;2023-03-12T11:15:25;15.20;99.90
34768;DHT22;21755;43.608;1.236;2023-03-12T11:18:26;15.00;99.90
34768;DHT22;21755;43.608;1.236;2023-03-12T11:21:10;15.20;99.90
34768;DHT22;21755;43.608;1.236;2023-03-12T11:23:39;15.50;99.90
34768;DHT22;21755;43.608;1.236;2023-03-12T11:26:18;15.60;99.90
34768;DHT22;21755;43.608;1.236;2023-03-12T11:28:50;15.80;99.90
34768;DHT22;21755;43.608;1.236;2023-03-12T11:31:29;15.80;99.90
34768;DHT22;21755;43.608;1.236;2023-03-12T11:34:04;16.10;99.90
34768;DHT22;21755;43.608;1.236;2023-03-12T11:41:44;16.30;99.90
34768;DHT22;21755;43.608;1.236;2023-03-12T11:47:18;16.20;99.90
34768;DHT22;21755;43.608;1.236;2023-03-12T11:50:07;16.10;99.90
34768;DHT22;21755;43.608;1.236;2023-03-12T11:52:47;16.20;99.90
34768;DHT22;21755;43.608;1.236;2023-03-12T11:55:30;16.50;99.90
34768;DHT22;21755;43.608;1.236;2023-03-12T11:58:29;16.50;99.90
34768;DHT22;21755;43.608;1.236;2023-03-12T12:08:58;16.70;99.90
34768;DHT22;21755;43.608;1.236;2023-03-12T12:11:44;16.70;99.90
34768;DHT22;21755;43.608;1.236;2023-03-12T12:17:30;16.80;99.90
34768;DHT22;21755;43.608;1.236;2023-03-12T12:25:59;16.80;99.90
34768;DHT22;21755;43.608;1.236;2023-03-12T12:28:38;17.00;99.90
34768;DHT22;21755;43.608;1.236;2023-03-12T12:36:35;17.20;99.90
34768;DHT22;21755;43.608;1.236;2023-03-12T12:39:12;16.90;99.90
34768;DHT22;21755;43.608;1.236;2023-03-12T12:42:04;16.60;99.90
34768;DHT22;21755;43.608;1.236;2023-03-12T12:44:51;16.90;99.90
34768;DHT22;21755;43.608;1.236;2023-03-12T12:47:21;17.00;99.90
34768;DHT22;21755;43.608;1.236;2023-03-12T12:49:57;17.00;99.90
34768;DHT22;21755;43.608;1.236;2023-03-12T12:52:25;17.00;99.90
34768;DHT22;21755;43.608;1.236;2023-03-12T13:00:19;17.20;99.90
34768;DHT22;21755;43.608;1.236;2023-03-12T13:02:47;17.10;99.90
34768;DHT22;21755;43.608;1.236;2023-03-12T13:05:27;17.30;99.90
34768;DHT22;21755;43.608;1.236;2023-03-12T13:07:53;17.30;99.90
34768;DHT22;21755;43.608;1.236;2023-03-12T13:12:59;17.30;99.90
34768;DHT22;21755;43.608;1.236;2023-03-12T13:20:21;16.90;99.90
34768;DHT22;21755;43.608;1.236;2023-03-12T13:36:50;17.30;99.90
34768;DHT22;21755;43.608;1.236;2023-03-12T13:39:30;17.60;99.90
34768;DHT22;21755;43.608;1.236;2023-03-12T13:41:58;17.80;99.90
34768;DHT22;21755;43.608;1.236;2023-03-12T13:44:31;18.00;99.90
34768;DHT22;21755;43.608;1.236;2023-03-12T13:50:14;18.40;99.90
34768;DHT22;21755;43.608;1.236;2023-03-12T13:52:45;18.50;99.90
34768;DHT22;21755;43.608;1.236;2023-03-12T13:57:50;18.30;99.90
34768;DHT22;21755;43.608;1.236;2023-03-12T14:00:31;17.90;99.90
34768;DHT22;21755;43.608;1.236;2023-03-12T14:05:46;17.60;99.90
34768;DHT22;21755;43.608;1.236;2023-03-12T14:16:43;17.90;99.90
34768;DHT22;21755;43.608;1.236;2023-03-12T14:19:23;18.00;99.90
34768;DHT22;21755;43.608;1.236;2023-03-12T14:21:50;18.20;99.90
34768;DHT22;21755;43.608;1.236;2023-03-12T14:24:38;18.50;99.90
34768;DHT22;21755;43.608;1.236;2023-03-12T14:27:11;18.50;99.90
34768;DHT22;21755;43.608;1.236;2023-03-12T14:29:57;18.70;99.90
34768;DHT22;21755;43.608;1.236;2023-03-12T14:32:27;18.60;99.90
34768;DHT22;21755;43.608;1.236;2023-03-12T14:35:21;18.90;99.90
34768;DHT22;21755;43.608;1.236;2023-03-12T14:38:13;18.80;99.90
34768;DHT22;21755;43.608;1.236;2023-03-12T14:43:39;18.00;99.90
34768;DHT22;21755;43.608;1.236;2023-03-12T14:46:20;17.90;99.90
34768;DHT22;21755;43.608;1.236;2023-03-12T14:48:51;18.00;99.90
34768;DHT22;21755;43.608;1.236;2023-03-12T14:51:23;18.20;99.90
34768;DHT22;21755;43.608;1.236;2023-03-12T14:53:50;18.20;99.90
34768;DHT22;21755;43.608;1.236;2023-03-12T14:56:31;18.30;99.90
34768;DHT22;21755;43.608;1.236;2023-03-12T14:59:03;18.40;99.90
34768;DHT22;21755;43.608;1.236;2023-03-12T15:01:45;18.60;99.90
34768;DHT22;21755;43.608;1.236;2023-03-12T15:04:17;18.70;99.90
34768;DHT22;21755;43.608;1.236;2023-03-12T15:06:52;18.80;99.90
34768;DHT22;21755;43.608;1.236;2023-03-12T15:09:25;19.00;99.90
34768;DHT22;21755;43.608;1.236;2023-03-12T15:14:23;18.70;99.90
34768;DHT22;21755;43.608;1.236;2023-03-12T15:16:51;18.50;99.90
34768;DHT22;21755;43.608;1.236;2023-03-12T15:19:25;18.60;99.90
34768;DHT22;21755;43.608;1.236;2023-03-12T15:21:52;18.50;99.90
34768;DHT22;21755;43.608;1.236;2023-03-12T15:24:18;18.50;99.90
34768;DHT22;21755;43.608;1.236;2023-03-12T15:26:44;18.50;99.90
34768;DHT22;21755;43.608;1.236;2023-03-12T15:31:43;18.40;99.90
34768;DHT22;21755;43.608;1.236;2023-03-12T15:34:14;18.40;99.90
34768;DHT22;21755;43.608;1.236;2023-03-12T15:36:50;18.30;99.90
34768;DHT22;21755;43.608;1.236;2023-03-12T15:41:46;18.30;99.90
34768;DHT22;21755;43.608;1.236;2023-03-12T15:44:26;18.40;99.90
34768;DHT22;21755;43.608;1.236;2023-03-12T15:46:54;18.40;99.90
34768;DHT22;21755;43.608;1.236;2023-03-12T15:49:27;18.30;99.90
34768;DHT22;21755;43.608;1.236;2023-03-12T15:52:11;18.30;99.90
34768;DHT22;21755;43.608;1.236;2023-03-12T16:02:59;18.20;99.90
34768;DHT22;21755;43.608;1.236;2023-03-12T16:05:31;18.20;99.90
34768;DHT22;21755;43.608;1.236;2023-03-12T16:08:35;18.10;99.90
34768;DHT22;21755;43.608;1.236;2023-03-12T16:11:02;18.00;99.90
34768;DHT22;21755;43.608;1.236;2023-03-12T16:13:30;17.90;99.90
34768;DHT22;21755;43.608;1.236;2023-03-12T16:15:57;17.90;99.90
34768;DHT22;21755;43.608;1.236;2023-03-12T16:18:23;17.90;99.90
34768;DHT22;21755;43.608;1.236;2023-03-12T16:20:50;17.90;99.90
34768;DHT22;21755;43.608;1.236;2023-03-12T16:23:17;17.90;99.90
34768;DHT22;21755;43.608;1.236;2023-03-12T16:25:45;17.80;99.90
34768;DHT22;21755;43.608;1.236;2023-03-12T16:28:16;17.70;99.90
34768;DHT22;21755;43.608;1.236;2023-03-12T16:30:43;17.70;99.90
34768;DHT22;21755;43.608;1.236;2023-03-12T16:33:17;17.70;99.90
34768;DHT22;21755;43.608;1.236;2023-03-12T16:35:43;17.60;99.90
34768;DHT22;21755;43.608;1.236;2023-03-12T16:38:09;17.60;99.90
34768;DHT22;21755;43.608;1.236;2023-03-12T16:40:38;17.60;99.90
34768;DHT22;21755;43.608;1.236;2023-03-12T16:43:06;17.60;99.90
34768;DHT22;21755;43.608;1.236;2023-03-12T16:45:34;17.50;99.90
34768;DHT22;21755;43.608;1.236;2023-03-12T16:48:03;17.50;99.90
34768;DHT22;21755;43.608;1.236;2023-03-12T16:50:29;17.50;99.90
34768;DHT22;21755;43.608;1.236;2023-03-12T16:52:56;17.50;99.90
34768;DHT22;21755;43.608;1.236;2023-03-12T16:55:26;17.40;99.90
34768;DHT22;21755;43.608;1.236;2023-03-12T16:58:00;17.40;99.90
34768;DHT22;21755;43.608;1.236;2023-03-12T17:00:32;17.40;99.90
34768;DHT22;21755;43.608;1.236;2023-03-12T17:02:58;17.30;99.90
34768;DHT22;21755;43.608;1.236;2023-03-12T17:05:28;17.30;99.90
34768;DHT22;21755;43.608;1.236;2023-03-12T17:07:55;17.20;99.90
34768;DHT22;21755;43.608;1.236;2023-03-12T17:10:22;17.20;99.90
34768;DHT22;21755;43.608;1.236;2023-03-12T17:12:48;17.10;99.90
34768;DHT22;21755;43.608;1.236;2023-03-12T17:15:22;17.00;99.90
34768;DHT22;21755;43.608;1.236;2023-03-12T17:17:48;16.90;99.90
34768;DHT22;21755;43.608;1.236;2023-03-12T17:20:16;16.90;99.90
34768;DHT22;21755;43.608;1.236;2023-03-12T17:22:43;16.90;99.90
34768;DHT22;21755;43.608;1.236;2023-03-12T17:25:29;16.80;99.90
34768;DHT22;21755;43.608;1.236;2023-03-12T17:27:56;16.80;99.90
34768;DHT22;21755;43.608;1.236;2023-03-12T17:30:22;16.70;99.90
34768;DHT22;21755;43.608;1.236;2023-03-12T17:32:49;16.70;99.90
34768;DHT22;21755;43.608;1.236;2023-03-12T17:35:16;16.70;99.90
34768;DHT22;21755;43.608;1.236;2023-03-12T17:37:42;16.60;99.90
34768;DHT22;21755;43.608;1.236;2023-03-12T17:40:09;16.60;99.90